Overseas Houston — WWAA — position and weather

sailwx.info

Track history (hours):
 
Tides and Currents Weather Stations Pressure Air Temp Water Temp Dewpoint Dewpoint Depression Visibility Wind Speed Wind Dir Waves Ship Positions

Overseas Houston

Owner: ASC Leasing I, Inc., Philadelphia, PA. More information available from US FCC via Universal Licensing System and Coast Guard Vessel Documentation Center.

Last reported at 2016-Feb-05 15:10 UTC. Time now 2016-Feb-08 04:12 UTC.
Position N 27°37' W 082°41'.

Type: Tanker. MMSI: 367109000.

Date/timePositionNaut miles runAvg speedWind from/ knotsBaromVisibWave heightAir tempDewpointWater temp
2016-Feb-05 15:10N 27°37' W 082°41'813.1
2016-Feb-05 14:33N 27°42' W 082°33'8 8.4
2016-Feb-05 13:33N 27°50' W 082°34'2 1.8
2016-Feb-05 12:31N 27°52' W 082°33'0 0.0
2016-Feb-05 11:31N 27°52' W 082°33'0 0.0
2016-Feb-05 10:31N 27°52' W 082°33'0 0.0
2016-Feb-05 09:31N 27°52' W 082°33'0 0.0
2016-Feb-05 08:28N 27°52' W 082°33'0 0.0
2016-Feb-05 07:31N 27°52' W 082°33'0 0.0
2016-Feb-05 06:31N 27°52' W 082°33'0 0.0
2016-Feb-05 05:31N 27°52' W 082°33'0 0.0
2016-Feb-05 04:31N 27°52' W 082°33'0 0.0
2016-Feb-05 03:31N 27°52' W 082°33'0 0.0
2016-Feb-05 02:31N 27°52' W 082°33'0 0.0
2016-Feb-05 01:31N 27°52' W 082°33'0 0.0
2016-Feb-05 00:31N 27°52' W 082°33'0 0.0
2016-Feb-04 23:31N 27°52' W 082°33'0 0.0
2016-Feb-04 22:31N 27°52' W 082°33'0 0.0
2016-Feb-04 21:31N 27°52' W 082°33'0 0.0
2016-Feb-04 20:31N 27°52' W 082°33'0 0.0
2016-Feb-04 19:31N 27°52' W 082°33'1 1.5
2016-Feb-04 18:33N 27°50' W 082°34'6 5.9
2016-Feb-04 17:33N 27°48' W 082°28'7 6.8
2016-Feb-04 16:33N 27°55' W 082°27'0 0.0
2016-Feb-04 15:33N 27°55' W 082°27'0 0.0
2016-Feb-04 14:33N 27°55' W 082°27'0 0.0
2016-Feb-04 13:33N 27°55' W 082°27'0 0.0
2016-Feb-04 12:33N 27°55' W 082°27'0 0.0
2016-Feb-04 11:33N 27°55' W 082°27'0 0.0
2016-Feb-04 10:30N 27°55' W 082°27'0 0.0
2016-Feb-04 09:33N 27°55' W 082°27'0 0.0
2016-Feb-04 08:33N 27°55' W 082°27'0 0.0
2016-Feb-04 07:33N 27°55' W 082°27'0 0.0
2016-Feb-04 06:33N 27°55' W 082°27'0 0.0
2016-Feb-04 05:33N 27°55' W 082°27'0 0.0
2016-Feb-04 04:33N 27°55' W 082°27'0 0.0
2016-Feb-04 03:33N 27°55' W 082°27'0 0.0
2016-Feb-04 02:33N 27°55' W 082°27'0 0.0
2016-Feb-04 01:33N 27°55' W 082°27'0 0.0
2016-Feb-04 00:33N 27°55' W 082°27'0 0.0
2016-Feb-03 23:33N 27°55' W 082°27'0 0.0
2016-Feb-03 22:33N 27°55' W 082°27'0 0.0
2016-Feb-03 21:33N 27°55' W 082°27'0 0.0
2016-Feb-03 20:33N 27°55' W 082°27'0 0.0
2016-Feb-03 19:33N 27°55' W 082°27'0 0.0
2016-Feb-03 18:33N 27°55' W 082°27'0 0.0
2016-Feb-03 17:33N 27°55' W 082°27'0 0.0
2016-Feb-03 16:33N 27°55' W 082°27'5 4.6
2016-Feb-03 15:33N 27°51' W 082°27'1110.9
2016-Feb-03 14:33N 27°41' W 082°34'  
2016-Jan-29 14:21N 29°60' W 090°28'6 7.5
2016-Jan-29 13:33N 29°56' W 090°22'9 6.6
2016-Jan-29 12:16N 29°55' W 090°12'4 5.3
2016-Jan-29 11:31N 29°55' W 090°08'  
2016-Jan-26 18:22N 27°37' W 082°41'911.5
2016-Jan-26 17:33N 27°43' W 082°33'9 8.8
2016-Jan-26 16:33N 27°52' W 082°33'0 0.3
2016-Jan-26 15:33N 27°52' W 082°33'  
Track history (hours):
 
Tides and Currents Weather Stations Pressure Air Temp Water Temp Dewpoint Dewpoint Depression Visibility Wind Speed Wind Dir Waves Ship Positions

Overseas Houston

Owner: ASC Leasing I, Inc., Philadelphia, PA. More information available from US FCC via Universal Licensing System and Coast Guard Vessel Documentation Center.

Last reported at 2016-Feb-05 15:10 UTC. Time now 2016-Feb-08 04:12 UTC.
Position N 27°37' W 082°41'.

Type: Tanker. MMSI: 367109000.

Date/timePositionNaut miles runAvg speedWind from/ knotsBaromVisibWave heightAir tempDewpointWater temp
2016-Feb-05 15:10N 27°37' W 082°41'813.1
2016-Feb-05 14:33N 27°42' W 082°33'8 8.4
2016-Feb-05 13:33N 27°50' W 082°34'2 1.8
2016-Feb-05 12:31N 27°52' W 082°33'0 0.0
2016-Feb-05 11:31N 27°52' W 082°33'0 0.0
2016-Feb-05 10:31N 27°52' W 082°33'0 0.0
2016-Feb-05 09:31N 27°52' W 082°33'0 0.0
2016-Feb-05 08:28N 27°52' W 082°33'0 0.0
2016-Feb-05 07:31N 27°52' W 082°33'0 0.0
2016-Feb-05 06:31N 27°52' W 082°33'0 0.0
2016-Feb-05 05:31N 27°52' W 082°33'0 0.0
2016-Feb-05 04:31N 27°52' W 082°33'0 0.0
2016-Feb-05 03:31N 27°52' W 082°33'0 0.0
2016-Feb-05 02:31N 27°52' W 082°33'0 0.0
2016-Feb-05 01:31N 27°52' W 082°33'0 0.0
2016-Feb-05 00:31N 27°52' W 082°33'0 0.0
2016-Feb-04 23:31N 27°52' W 082°33'0 0.0
2016-Feb-04 22:31N 27°52' W 082°33'0 0.0
2016-Feb-04 21:31N 27°52' W 082°33'0 0.0
2016-Feb-04 20:31N 27°52' W 082°33'0 0.0
2016-Feb-04 19:31N 27°52' W 082°33'1 1.5
2016-Feb-04 18:33N 27°50' W 082°34'6 5.9
2016-Feb-04 17:33N 27°48' W 082°28'7 6.8
2016-Feb-04 16:33N 27°55' W 082°27'0 0.0
2016-Feb-04 15:33N 27°55' W 082°27'0 0.0
2016-Feb-04 14:33N 27°55' W 082°27'0 0.0
2016-Feb-04 13:33N 27°55' W 082°27'0 0.0
2016-Feb-04 12:33N 27°55' W 082°27'0 0.0
2016-Feb-04 11:33N 27°55' W 082°27'0 0.0
2016-Feb-04 10:30N 27°55' W 082°27'0 0.0
2016-Feb-04 09:33N 27°55' W 082°27'0 0.0
2016-Feb-04 08:33N 27°55' W 082°27'0 0.0
2016-Feb-04 07:33N 27°55' W 082°27'0 0.0
2016-Feb-04 06:33N 27°55' W 082°27'0 0.0
2016-Feb-04 05:33N 27°55' W 082°27'0 0.0
2016-Feb-04 04:33N 27°55' W 082°27'0 0.0
2016-Feb-04 03:33N 27°55' W 082°27'0 0.0
2016-Feb-04 02:33N 27°55' W 082°27'0 0.0
2016-Feb-04 01:33N 27°55' W 082°27'0 0.0
2016-Feb-04 00:33N 27°55' W 082°27'0 0.0
2016-Feb-03 23:33N 27°55' W 082°27'0 0.0
2016-Feb-03 22:33N 27°55' W 082°27'0 0.0
2016-Feb-03 21:33N 27°55' W 082°27'0 0.0
2016-Feb-03 20:33N 27°55' W 082°27'0 0.0
2016-Feb-03 19:33N 27°55' W 082°27'0 0.0
2016-Feb-03 18:33N 27°55' W 082°27'0 0.0
2016-Feb-03 17:33N 27°55' W 082°27'0 0.0
2016-Feb-03 16:33N 27°55' W 082°27'5 4.6
2016-Feb-03 15:33N 27°51' W 082°27'1110.9
2016-Feb-03 14:33N 27°41' W 082°34'  
2016-Jan-29 14:21N 29°60' W 090°28'6 7.5
2016-Jan-29 13:33N 29°56' W 090°22'9 6.6
2016-Jan-29 12:16N 29°55' W 090°12'4 5.3
2016-Jan-29 11:31N 29°55' W 090°08'  
2016-Jan-26 18:22N 27°37' W 082°41'911.5
2016-Jan-26 17:33N 27°43' W 082°33'9 8.8
2016-Jan-26 16:33N 27°52' W 082°33'0 0.3
2016-Jan-26 15:33N 27°52' W 082°33'  

Dump ship's entire track history